Time;durP1;ratioP1;P1;durP2;ratioP2;P2;SDS_P1;SDS_P2;PMS_P1;PMS_P2;Temp;Humidity;BMP_temperature;BMP_pressure;BME280_temperature;BME280_humidity;BME280_pressure;Samples;Min_cycle;Max_cycle;Signal;HPM_P1;HPM_P2
2021/03/09 00:02:25;;;;;;;25.58;19.95;;;0.30;76.60;;;;;;5039756;29;20519;-69
2021/03/09 00:04:56;;;;;;;24.20;20.98;;;0.30;76.50;;;;;;5040108;29;20077;-69
2021/03/09 00:07:28;;;;;;;24.90;20.77;;;0.40;75.80;;;;;;5040736;29;20164;-69
2021/03/09 00:09:59;;;;;;;24.17;20.02;;;0.40;75.70;;;;;;5039263;29;20052;-68
2021/03/09 00:12:31;;;;;;;25.13;19.67;;;0.40;75.40;;;;;;5040141;29;20602;-69
2021/03/09 00:15:04;;;;;;;29.00;20.58;;;0.40;75.70;;;;;;5022061;29;20047;-69
2021/03/09 00:17:36;;;;;;;26.85;20.60;;;0.40;75.60;;;;;;5040238;29;20059;-68
2021/03/09 00:20:09;;;;;;;23.60;19.58;;;0.40;75.40;;;;;;5039271;29;20049;-69
2021/03/09 00:22:40;;;;;;;22.80;18.65;;;0.40;75.30;;;;;;5038783;29;20140;-70
2021/03/09 00:25:12;;;;;;;26.08;20.00;;;0.40;75.30;;;;;;5022675;29;20081;-69
2021/03/09 00:27:43;;;;;;;25.65;20.02;;;0.40;75.20;;;;;;5037713;29;20048;-69
2021/03/09 00:30:15;;;;;;;24.42;19.60;;;0.40;74.50;;;;;;5038594;29;20063;-70
2021/03/09 00:32:47;;;;;;;24.02;19.33;;;0.40;74.70;;;;;;5037952;29;20567;-69
2021/03/09 00:35:19;;;;;;;24.08;19.15;;;0.30;74.90;;;;;;5038097;29;20088;-69
2021/03/09 00:37:50;;;;;;;24.35;19.30;;;0.30;75.20;;;;;;5038253;29;20594;-69
2021/03/09 00:40:22;;;;;;;24.73;19.45;;;0.30;75.30;;;;;;5039919;29;20052;-69
2021/03/09 00:42:53;;;;;;;22.88;19.00;;;0.30;75.00;;;;;;5040654;29;20048;-69
2021/03/09 00:45:25;;;;;;;22.83;18.60;;;0.30;74.80;;;;;;5038305;29;20076;-68
2021/03/09 00:48:01;;;;;;;25.05;19.92;;;0.30;74.40;;;;;;5038903;29;20113;-69
2021/03/09 00:50:32;;;;;;;23.08;19.30;;;0.40;73.80;;;;;;5039941;29;20494;-69
2021/03/09 00:53:04;;;;;;;23.60;19.40;;;0.40;73.10;;;;;;5020896;29;20100;-68
2021/03/09 00:55:35;;;;;;;23.60;19.27;;;0.40;72.70;;;;;;5038694;29;20052;-68
2021/03/09 00:58:07;;;;;;;25.40;20.05;;;0.40;72.40;;;;;;5038373;29;20120;-69
2021/03/09 01:00:38;;;;;;;24.65;20.80;;;0.40;72.80;;;;;;5037983;29;20076;-68
2021/03/09 01:03:09;;;;;;;24.73;19.92;;;0.40;73.10;;;;;;5038841;29;20120;-69
2021/03/09 01:05:41;;;;;;;25.77;19.98;;;0.30;72.80;;;;;;5038139;29;20044;-68
2021/03/09 01:08:13;;;;;;;23.88;19.58;;;0.40;72.20;;;;;;5038716;29;20614;-70
2021/03/09 01:10:44;;;;;;;23.08;19.55;;;0.40;71.80;;;;;;5019814;29;20073;-69
2021/03/09 01:13:16;;;;;;;23.75;19.63;;;0.40;72.00;;;;;;5037988;29;20057;-70
2021/03/09 01:15:47;;;;;;;24.55;19.80;;;0.40;71.60;;;;;;5038040;29;20507;-68
2021/03/09 01:18:27;;;;;;;23.50;20.20;;;0.30;71.40;;;;;;5037976;29;20612;-69
2021/03/09 01:20:59;;;;;;;23.38;19.98;;;0.30;71.50;;;;;;5037263;29;20140;-69
2021/03/09 01:23:30;;;;;;;25.05;19.75;;;0.30;71.90;;;;;;5036464;29;20056;-68
2021/03/09 01:26:02;;;;;;;22.90;19.33;;;0.20;72.30;;;;;;5035943;29;20627;-70
2021/03/09 01:28:33;;;;;;;23.73;20.02;;;0.20;73.00;;;;;;5038203;29;20372;-69
2021/03/09 01:31:05;;;;;;;23.65;20.13;;;0.10;72.80;;;;;;5036780;29;20049;-69
2021/03/09 01:33:37;;;;;;;24.77;19.77;;;0.10;73.20;;;;;;5038183;29;20053;-69
2021/03/09 01:36:08;;;;;;;22.30;19.85;;;0.10;73.60;;;;;;5036648;29;20110;-68
2021/03/09 01:38:40;;;;;;;25.00;19.48;;;0.00;72.90;;;;;;5038029;29;20472;-69
2021/03/09 01:41:12;;;;;;;25.35;20.55;;;0.10;73.00;;;;;;5037316;29;20056;-69
2021/03/09 01:43:43;;;;;;;24.13;19.75;;;0.10;73.30;;;;;;5038873;29;20487;-70
2021/03/09 01:46:16;;;;;;;23.73;20.52;;;0.10;72.70;;;;;;5037940;29;20112;-72
2021/03/09 01:48:48;;;;;;;26.23;20.23;;;0.00;72.50;;;;;;5021986;29;20140;-70
2021/03/09 01:51:20;;;;;;;25.45;20.80;;;0.00;72.50;;;;;;5038780;29;20041;-72
2021/03/09 01:53:51;;;;;;;23.83;20.27;;;0.00;72.50;;;;;;5038007;29;20080;-70
2021/03/09 01:56:23;;;;;;;27.45;20.08;;;-0.10;72.90;;;;;;5038094;29;20523;-69
2021/03/09 01:58:56;;;;;;;25.00;20.52;;;-0.10;73.70;;;;;;5038233;29;20076;-71
2021/03/09 02:01:28;;;;;;;26.25;21.48;;;-0.20;72.90;;;;;;5038035;29;20057;-68
2021/03/09 02:03:59;;;;;;;24.48;19.92;;;-0.10;72.50;;;;;;5037705;29;20045;-68
2021/03/09 02:06:32;;;;;;;25.65;20.55;;;-0.20;73.00;;;;;;5036362;29;20687;-68
2021/03/09 02:09:05;;;;;;;23.38;20.25;;;-0.20;73.10;;;;;;5038242;29;20163;-68
2021/03/09 02:11:43;;;;;;;25.40;20.90;;;-0.30;73.90;;;;;;5037182;29;20077;-70
2021/03/09 02:14:30;;;;;;;24.10;19.98;;;-0.30;74.10;;;;;;5038191;29;20523;-69
2021/03/09 02:17:37;;;;;;;25.67;20.50;;;-0.30;74.40;;;;;;5035287;29;20160;-69
2021/03/09 02:20:45;;;;;;;26.98;20.65;;;-0.40;74.50;;;;;;5020238;29;20056;-69
2021/03/09 02:23:34;;;;;;;25.05;20.65;;;-0.30;74.10;;;;;;5035190;29;20519;-68
2021/03/09 02:26:24;;;;;;;29.45;21.77;;;-0.40;75.50;;;;;;5035242;29;20067;-69
2021/03/09 02:29:11;;;;;;;24.08;19.42;;;-0.50;76.20;;;;;;5036058;29;20072;-69
2021/03/09 02:31:45;;;;;;;22.58;17.98;;;-0.50;75.30;;;;;;5034712;29;20052;-69
2021/03/09 02:34:41;;;;;;;26.92;20.65;;;-0.40;74.90;;;;;;5035226;29;20514;-69
2021/03/09 02:37:15;;;;;;;29.88;20.50;;;-0.40;75.20;;;;;;5035924;29;20716;-68
2021/03/09 02:39:48;;;;;;;26.58;20.38;;;-0.40;75.10;;;;;;5037443;29;20116;-70
2021/03/09 02:42:26;;;;;;;24.85;19.42;;;-0.40;74.60;;;;;;5019495;29;20113;-69
2021/03/09 02:45:00;;;;;;;23.85;18.30;;;-0.40;74.70;;;;;;5037021;29;20076;-68
2021/03/09 02:47:33;;;;;;;22.98;18.30;;;-0.40;74.50;;;;;;5036932;29;20133;-69
2021/03/09 02:50:06;;;;;;;28.10;19.77;;;-0.50;74.40;;;;;;5038884;29;20072;-69
2021/03/09 02:52:40;;;;;;;24.70;19.70;;;-0.50;75.40;;;;;;5036622;29;20084;-70
2021/03/09 02:55:14;;;;;;;25.45;18.88;;;-0.60;75.60;;;;;;5037340;29;20456;-70
2021/03/09 02:57:47;;;;;;;24.23;19.98;;;-0.60;76.10;;;;;;5020669;29;20482;-69
2021/03/09 03:00:20;;;;;;;25.55;20.02;;;-0.60;76.10;;;;;;5035477;29;20057;-71
2021/03/09 03:02:52;;;;;;;27.38;21.13;;;-0.60;76.30;;;;;;5038235;29;20049;-70
2021/03/09 03:05:24;;;;;;;26.73;21.13;;;-0.60;76.20;;;;;;5035512;29;20045;-71
2021/03/09 03:07:55;;;;;;;27.98;19.60;;;-0.70;76.60;;;;;;5038526;29;20132;-69
2021/03/09 03:10:27;;;;;;;25.67;20.00;;;-0.70;76.70;;;;;;5036522;29;20041;-69
2021/03/09 03:13:00;;;;;;;26.65;19.88;;;-0.70;76.40;;;;;;5037939;29;20113;-70
2021/03/09 03:15:33;;;;;;;25.65;18.77;;;-0.70;76.40;;;;;;5035809;29;20059;-70
2021/03/09 03:18:09;;;;;;;22.40;17.35;;;-0.70;75.90;;;;;;5037370;29;20535;-69
2021/03/09 03:20:45;;;;;;;26.10;19.23;;;-0.60;75.40;;;;;;5036311;29;20045;-69
2021/03/09 03:23:18;;;;;;;23.27;18.05;;;-0.60;75.00;;;;;;5019700;29;20162;-69
2021/03/09 03:25:52;;;;;;;24.35;19.40;;;-0.60;74.30;;;;;;5016697;29;20460;-70
2021/03/09 03:28:23;;;;;;;26.92;20.45;;;-0.50;74.40;;;;;;5036789;29;20049;-69
2021/03/09 03:30:55;;;;;;;26.33;19.90;;;-0.60;74.80;;;;;;5036355;29;20132;-69
2021/03/09 03:33:27;;;;;;;29.55;19.98;;;-0.60;74.60;;;;;;5036055;29;20049;-69
2021/03/09 03:36:04;;;;;;;25.35;19.30;;;-0.60;74.50;;;;;;5037021;29;20708;-70
2021/03/09 03:38:40;;;;;;;28.50;20.33;;;-0.60;73.50;;;;;;5040946;29;20598;-68
2021/03/09 03:41:12;;;;;;;29.00;21.35;;;-0.70;74.50;;;;;;5038759;29;20517;-68
2021/03/09 03:43:43;;;;;;;27.58;20.33;;;-0.70;75.70;;;;;;5041967;29;20191;-68
2021/03/09 03:46:15;;;;;;;29.40;20.35;;;-0.80;76.60;;;;;;5040771;29;20055;-69
2021/03/09 03:48:46;;;;;;;23.50;17.98;;;-0.80;76.40;;;;;;5022571;29;20041;-68
2021/03/09 03:51:22;;;;;;;22.80;18.25;;;-0.80;76.60;;;;;;5039908;29;20064;-68
2021/03/09 03:53:58;;;;;;;26.85;19.10;;;-0.90;76.50;;;;;;5039918;29;20072;-68
2021/03/09 03:56:49;;;;;;;24.55;17.92;;;-1.00;77.20;;;;;;5038587;29;20108;-68
2021/03/09 03:59:26;;;;;;;;;;;-1.00;77.40;;;;;;5039009;29;20155;-68
2021/03/09 04:02:03;;;;;;;24.00;17.70;;;-1.00;77.10;;;;;;5039215;29;19967;-68
2021/03/09 04:04:39;;;;;;;22.48;17.65;;;-1.00;76.70;;;;;;5040165;29;20057;-68
2021/03/09 04:07:10;;;;;;;24.95;18.35;;;-1.10;76.50;;;;;;5022115;29;20135;-68
2021/03/09 04:09:47;;;;;;;24.13;18.20;;;-1.20;77.10;;;;;;5039877;29;20057;-67
2021/03/09 04:12:20;;;;;;;21.30;17.27;;;-1.20;77.80;;;;;;5021472;29;20101;-68
2021/03/09 04:14:52;;;;;;;29.42;21.80;;;-1.10;77.50;;;;;;5022487;29;20112;-68
2021/03/09 04:17:24;;;;;;;27.52;19.70;;;-1.10;77.80;;;;;;5022096;29;20060;-68
2021/03/09 04:19:57;;;;;;;26.90;19.67;;;-1.10;77.00;;;;;;5039491;29;20268;-67
2021/03/09 04:22:30;;;;;;;23.48;18.42;;;-1.00;76.70;;;;;;5039070;29;20164;-68
2021/03/09 04:25:02;;;;;;;23.70;18.73;;;-1.00;75.90;;;;;;5039533;29;20048;-69
2021/03/09 04:27:33;;;;;;;24.75;18.75;;;-1.00;75.50;;;;;;5021856;29;20423;-68
2021/03/09 04:30:06;;;;;;;25.70;19.27;;;-1.00;75.20;;;;;;5039710;29;20143;-70
2021/03/09 04:32:37;;;;;;;21.63;16.75;;;-1.00;75.10;;;;;;5038432;29;20083;-69
2021/03/09 04:35:10;;;;;;;23.10;17.80;;;-1.00;75.20;;;;;;5038672;29;20093;-69
2021/03/09 04:37:43;;;;;;;24.00;17.52;;;-1.00;75.10;;;;;;5038467;29;20045;-69
2021/03/09 04:40:15;;;;;;;25.90;19.38;;;-1.00;75.00;;;;;;5039759;29;20456;-67
2021/03/09 04:42:47;;;;;;;23.95;17.38;;;-1.00;74.80;;;;;;5040575;29;20123;-67
2021/03/09 04:45:18;;;;;;;22.38;18.42;;;-1.00;74.80;;;;;;5038692;29;20136;-67
2021/03/09 04:47:50;;;;;;;25.23;18.75;;;-1.00;75.00;;;;;;5039295;29;20403;-67
2021/03/09 04:50:22;;;;;;;23.88;17.80;;;-1.00;74.60;;;;;;5022776;29;20110;-67
2021/03/09 04:52:54;;;;;;;23.33;17.25;;;-1.00;74.70;;;;;;5039145;29;20080;-66
2021/03/09 04:55:26;;;;;;;22.90;18.50;;;-1.00;74.40;;;;;;5038592;29;20060;-66
2021/03/09 04:57:58;;;;;;;24.10;18.48;;;-1.00;74.30;;;;;;5012250;29;20350;-67
2021/03/09 05:00:30;;;;;;;22.48;16.70;;;-1.00;74.90;;;;;;5038912;29;20121;-66
2021/03/09 05:03:01;;;;;;;23.98;17.40;;;-1.00;74.40;;;;;;5039076;29;20728;-67
2021/03/09 05:05:33;;;;;;;24.10;17.55;;;-1.00;74.00;;;;;;5038049;29;20535;-67
2021/03/09 05:08:04;;;;;;;22.48;16.95;;;-1.10;73.90;;;;;;5038676;29;20131;-67
2021/03/09 05:10:36;;;;;;;24.65;17.30;;;-1.10;74.30;;;;;;5038561;29;20084;-65
2021/03/09 05:13:07;;;;;;;20.73;16.10;;;-1.10;74.70;;;;;;5038786;29;20053;-67
2021/03/09 05:15:39;;;;;;;22.65;16.55;;;-1.20;75.00;;;;;;5036359;29;20614;-67
2021/03/09 05:18:11;;;;;;;20.23;15.93;;;-1.20;74.60;;;;;;5038700;29;20128;-67
2021/03/09 05:20:43;;;;;;;21.65;15.82;;;-1.20;75.40;;;;;;5037677;29;20060;-65
2021/03/09 05:23:14;;;;;;;19.55;15.13;;;-1.30;75.70;;;;;;5037745;29;20073;-66
2021/03/09 05:25:46;;;;;;;20.42;15.80;;;-1.40;75.80;;;;;;5037692;29;20045;-65
2021/03/09 05:28:17;;;;;;;19.27;15.25;;;-1.40;75.90;;;;;;5022130;29;20057;-67
2021/03/09 05:30:48;;;;;;;19.73;15.05;;;-1.40;75.90;;;;;;5037643;29;20049;-66
2021/03/09 05:33:20;;;;;;;16.92;14.30;;;-1.30;75.50;;;;;;5021374;29;20065;-66
2021/03/09 05:35:52;;;;;;;17.95;13.95;;;-1.30;74.90;;;;;;5037439;29;20052;-66
2021/03/09 05:38:23;;;;;;;19.92;13.90;;;-1.20;74.70;;;;;;5037944;29;20144;-66
2021/03/09 05:40:54;;;;;;;23.42;15.30;;;-1.20;74.80;;;;;;5037990;29;20071;-66
2021/03/09 05:43:26;;;;;;;19.27;14.45;;;-1.20;74.70;;;;;;5039166;29;20080;-66
2021/03/09 05:45:58;;;;;;;18.08;14.82;;;-1.20;73.90;;;;;;5036853;29;20235;-66
2021/03/09 05:48:29;;;;;;;20.67;14.32;;;-1.20;73.90;;;;;;5037889;29;20111;-66
2021/03/09 05:51:01;;;;;;;22.05;15.65;;;-1.20;73.60;;;;;;5036392;29;20045;-65
2021/03/09 05:53:32;;;;;;;19.42;14.52;;;-1.20;73.80;;;;;;5037951;29;20140;-67
2021/03/09 05:56:05;;;;;;;17.67;13.13;;;-1.20;73.60;;;;;;5037316;29;20109;-66
2021/03/09 05:58:36;;;;;;;19.70;13.98;;;-1.20;74.10;;;;;;5037699;29;20049;-65
2021/03/09 06:01:07;;;;;;;17.52;13.30;;;-1.20;74.60;;;;;;5037693;29;20132;-66
2021/03/09 06:03:39;;;;;;;19.58;13.68;;;-1.20;74.20;;;;;;5031598;29;20041;-68
2021/03/09 06:06:13;;;;;;;19.25;13.90;;;-1.20;74.50;;;;;;5035339;29;20112;-66
2021/03/09 06:08:45;;;;;;;19.88;14.77;;;-1.20;74.70;;;;;;5033949;29;20097;-66
2021/03/09 06:11:20;;;;;;;21.35;14.80;;;-1.10;74.60;;;;;;5033135;29;20136;-67
2021/03/09 06:13:54;;;;;;;21.17;16.63;;;-1.20;74.50;;;;;;5033994;29;20060;-67
2021/03/09 06:16:33;;;;;;;21.35;15.82;;;-1.20;74.50;;;;;;5033548;29;20136;-67
2021/03/09 06:19:05;;;;;;;23.98;17.10;;;-1.20;74.40;;;;;;5034169;29;20049;-66
2021/03/09 06:21:36;;;;;;;23.95;16.67;;;-1.10;74.90;;;;;;5032532;29;20476;-68
2021/03/09 06:24:28;;;;;;;21.27;16.48;;;-1.00;74.90;;;;;;5028747;29;20496;-66
2021/03/09 06:26:59;;;;;;;23.25;16.63;;;-0.90;74.60;;;;;;5029968;29;20045;-66
2021/03/09 06:29:31;;;;;;;23.17;15.63;;;-0.80;74.30;;;;;;5030549;29;20472;-67
2021/03/09 06:32:04;;;;;;;21.27;15.20;;;-0.80;74.20;;;;;;5029283;29;20085;-67
2021/03/09 06:34:37;;;;;;;23.60;17.08;;;-0.70;74.10;;;;;;5029464;29;20413;-66
2021/03/09 06:37:20;;;;;;;20.88;15.52;;;-0.60;74.10;;;;;;5030968;29;20081;-67
2021/03/09 06:39:56;;;;;;;21.15;16.48;;;-0.60;74.30;;;;;;5030414;29;20113;-66
2021/03/09 06:42:30;;;;;;;20.40;16.23;;;-0.50;73.90;;;;;;5030298;29;20148;-66
2021/03/09 06:45:01;;;;;;;22.83;17.10;;;-0.40;73.90;;;;;;5033546;29;20115;-67
2021/03/09 06:47:44;;;;;;;22.30;16.67;;;-0.30;74.20;;;;;;5019516;29;20085;-68
2021/03/09 06:50:32;;;;;;;23.73;16.73;;;-0.30;73.80;;;;;;5030637;29;20057;-67
2021/03/09 06:53:04;;;;;;;21.13;16.05;;;-0.30;73.70;;;;;;5032039;29;20072;-67
2021/03/09 06:55:36;;;;;;;25.17;16.42;;;-0.20;73.70;;;;;;5031634;29;20051;-67
2021/03/09 06:58:12;;;;;;;25.90;16.60;;;-0.10;73.70;;;;;;5026577;29;20164;-67
2021/03/09 07:00:43;;;;;;;23.17;17.20;;;0.00;73.20;;;;;;5016045;29;20150;-67
2021/03/09 07:03:34;;;;;;;19.33;16.20;;;0.10;73.10;;;;;;5002767;29;20054;-67
2021/03/09 07:06:06;;;;;;;23.38;16.70;;;0.30;73.00;;;;;;5001317;29;20042;-67
2021/03/09 07:08:39;;;;;;;22.20;17.65;;;0.40;73.10;;;;;;5000328;29;20312;-67
2021/03/09 07:11:12;;;;;;;21.10;17.05;;;0.50;73.10;;;;;;5020369;29;20161;-69
2021/03/09 07:13:45;;;;;;;25.02;18.30;;;0.60;73.20;;;;;;5023065;29;20057;-69
2021/03/09 07:16:17;;;;;;;23.35;17.67;;;0.70;72.80;;;;;;5006088;29;20074;-68
2021/03/09 07:18:50;;;;;;;23.17;17.33;;;0.80;72.80;;;;;;5005065;29;20133;-68
2021/03/09 07:21:21;;;;;;;20.75;16.40;;;0.90;72.90;;;;;;5003909;29;20050;-67
2021/03/09 07:23:57;;;;;;;21.23;15.95;;;1.00;72.30;;;;;;5020234;29;20508;-68
2021/03/09 07:26:29;;;;;;;22.60;16.33;;;1.00;72.00;;;;;;5021121;29;20096;-67
2021/03/09 07:29:03;;;;;;;19.60;15.23;;;1.10;72.00;;;;;;5003626;29;20060;-68
2021/03/09 07:31:36;;;;;;;20.67;15.60;;;1.20;71.40;;;;;;5021889;29;20049;-67
2021/03/09 07:34:09;;;;;;;18.00;14.80;;;1.20;71.40;;;;;;5022528;29;20094;-67
2021/03/09 07:36:41;;;;;;;19.13;15.75;;;1.20;70.50;;;;;;5020930;29;20773;-68
2021/03/09 07:39:13;;;;;;;18.02;15.20;;;1.30;71.10;;;;;;5008244;29;20049;-67
2021/03/09 07:41:46;;;;;;;19.98;15.00;;;1.50;71.10;;;;;;5020334;29;20053;-67
2021/03/09 07:44:17;;;;;;;20.20;15.15;;;1.60;70.40;;;;;;5016311;29;20173;-67
2021/03/09 07:46:50;;;;;;;23.23;15.75;;;1.70;69.60;;;;;;5015993;29;20037;-66
2021/03/09 07:49:20;;;;;;;18.50;14.23;;;1.90;69.40;;;;;;5016852;29;20580;-66
2021/03/09 07:52:11;;;;;;;18.77;14.52;;;2.00;68.80;;;;;;5017611;29;20150;-67
2021/03/09 07:55:04;;;;;;;17.60;15.23;;;2.10;67.70;;;;;;5014413;29;20086;-66
2021/03/09 07:57:36;;;;;;;16.40;13.75;;;2.20;67.50;;;;;;5018060;29;20049;-67
2021/03/09 08:00:09;;;;;;;17.63;14.65;;;2.20;67.70;;;;;;5015012;29;20037;-67
2021/03/09 08:02:56;;;;;;;16.85;14.80;;;2.30;67.90;;;;;;5017670;29;20698;-66
2021/03/09 08:05:29;;;;;;;21.90;14.57;;;2.30;67.60;;;;;;5005590;29;20037;-67
2021/03/09 08:08:03;;;;;;;21.00;14.82;;;2.30;67.80;;;;;;5019159;29;20097;-66
2021/03/09 08:10:33;;;;;;;22.17;14.85;;;2.40;67.30;;;;;;5018099;29;20037;-66
2021/03/09 08:13:07;;;;;;;20.92;17.23;;;2.40;67.20;;;;;;5022272;29;20045;-66
2021/03/09 08:15:39;;;;;;;22.55;18.23;;;2.50;67.70;;;;;;5022274;29;20081;-68
2021/03/09 08:18:17;;;;;;;22.35;17.42;;;2.50;68.80;;;;;;5023000;29;20053;-66
2021/03/09 08:20:48;;;;;;;20.33;16.77;;;2.50;68.10;;;;;;5020550;29;20049;-67
2021/03/09 08:23:35;;;;;;;21.42;18.00;;;2.50;68.20;;;;;;5020369;29;20829;-66
2021/03/09 08:26:28;;;;;;;18.17;15.55;;;2.60;68.00;;;;;;5021851;29;20064;-67
2021/03/09 08:28:59;;;;;;;24.35;16.98;;;2.70;67.50;;;;;;5024076;29;20113;-66
2021/03/09 08:31:31;;;;;;;22.05;17.45;;;2.80;67.30;;;;;;5002265;29;20108;-66
2021/03/09 08:34:14;;;;;;;25.15;17.85;;;2.90;66.80;;;;;;5005591;29;20419;-66
2021/03/09 08:36:46;;;;;;;21.02;18.00;;;3.00;66.80;;;;;;5018264;29;20147;-67
2021/03/09 08:39:17;;;;;;;21.58;17.45;;;3.20;66.90;;;;;;5017421;29;20049;-67
2021/03/09 08:41:49;;;;;;;25.90;18.52;;;3.50;66.30;;;;;;5021105;29;20074;-66
2021/03/09 08:44:24;;;;;;;24.73;18.85;;;3.70;66.20;;;;;;5020366;29;20121;-67
2021/03/09 08:47:03;;;;;;;27.52;19.42;;;3.90;64.80;;;;;;5020026;29;20053;-66
2021/03/09 08:49:40;;;;;;;25.23;19.83;;;4.10;63.90;;;;;;5019963;29;20074;-67
2021/03/09 08:52:18;;;;;;;26.48;19.70;;;4.30;65.40;;;;;;5019275;29;20046;-66
2021/03/09 08:54:52;;;;;;;25.33;19.42;;;4.40;64.80;;;;;;5018179;29;20073;-67
2021/03/09 08:57:25;;;;;;;25.33;20.38;;;4.60;64.10;;;;;;5019999;29;20102;-67
2021/03/09 09:00:06;;;;;;;23.85;19.52;;;4.80;63.80;;;;;;5038273;29;20530;-67
2021/03/09 09:02:42;;;;;;;24.75;19.40;;;4.90;62.60;;;;;;5039704;29;20060;-66
2021/03/09 09:05:15;;;;;;;22.48;18.83;;;4.80;63.00;;;;;;5036828;29;20072;-66
2021/03/09 09:07:47;;;;;;;27.73;20.52;;;4.80;62.80;;;;;;5021013;29;20041;-67
2021/03/09 09:10:23;;;;;;;26.40;20.63;;;4.70;63.30;;;;;;5038070;29;20109;-68
2021/03/09 09:12:56;;;;;;;25.80;21.73;;;4.80;63.70;;;;;;4990456;29;20642;-67
2021/03/09 09:15:30;;;;;;;25.92;21.45;;;4.90;63.40;;;;;;5020881;29;20533;-66
2021/03/09 09:18:04;;;;;;;28.45;21.13;;;5.00;63.00;;;;;;5035358;29;20439;-67
2021/03/09 09:20:48;;;;;;;28.25;21.48;;;5.10;62.60;;;;;;5036225;29;20124;-68
2021/03/09 09:23:27;;;;;;;27.17;20.77;;;5.20;62.30;;;;;;5022179;29;20132;-67
2021/03/09 09:26:00;;;;;;;25.30;21.10;;;5.40;62.20;;;;;;5035760;29;20060;-68
2021/03/09 09:28:34;;;;;;;26.67;21.15;;;5.60;61.50;;;;;;5034784;29;20415;-66
2021/03/09 09:31:09;;;;;;;26.27;20.27;;;5.90;61.00;;;;;;5019961;29;20052;-67
2021/03/09 09:33:52;;;;;;;22.70;20.23;;;6.20;60.60;;;;;;5035911;29;20784;-67
2021/03/09 09:36:25;;;;;;;27.42;22.67;;;6.40;59.90;;;;;;5036051;29;20048;-67
2021/03/09 09:38:56;;;;;;;23.77;21.17;;;6.70;59.10;;;;;;5037792;29;20706;-66
2021/03/09 09:41:28;;;;;;;31.95;25.20;;;6.80;57.10;;;;;;5038154;29;20662;-67
2021/03/09 09:43:59;;;;;;;26.83;21.70;;;6.90;57.70;;;;;;5038682;29;20132;-66
2021/03/09 09:46:31;;;;;;;23.95;21.45;;;7.00;57.00;;;;;;5037434;29;20085;-67
2021/03/09 09:49:03;;;;;;;26.58;21.15;;;7.10;54.80;;;;;;5036395;29;20123;-67
2021/03/09 09:51:38;;;;;;;23.50;21.02;;;7.20;54.50;;;;;;5037096;29;20785;-67
2021/03/09 09:54:22;;;;;;;23.35;20.95;;;7.30;55.10;;;;;;5035247;29;20045;-66
2021/03/09 09:56:53;;;;;;;23.73;21.17;;;7.40;55.30;;;;;;5034268;29;20188;-67
2021/03/09 09:59:26;;;;;;;25.52;21.67;;;7.50;54.30;;;;;;5019198;29;20455;-66
2021/03/09 10:01:58;;;;;;;26.45;21.77;;;7.60;53.70;;;;;;5018804;29;20060;-67
2021/03/09 10:04:33;;;;;;;24.35;20.80;;;7.60;53.20;;;;;;5036326;29;20089;-67
2021/03/09 10:07:22;;;;;;;25.05;20.75;;;7.60;53.60;;;;;;5035073;29;20052;-68
2021/03/09 10:10:06;;;;;;;23.77;21.27;;;7.80;52.70;;;;;;5035144;29;20128;-68
2021/03/09 10:12:50;;;;;;;23.65;21.10;;;7.90;54.10;;;;;;5034692;29;20045;-68
2021/03/09 10:15:23;;;;;;;23.95;21.45;;;8.00;53.30;;;;;;4982416;29;20060;-68
2021/03/09 10:18:04;;;;;;;26.55;22.83;;;8.00;52.60;;;;;;5035756;29;20037;-67
2021/03/09 10:20:36;;;;;;;24.48;21.85;;;8.00;53.40;;;;;;5034732;29;20523;-66
2021/03/09 10:23:08;;;;;;;24.33;21.60;;;8.10;52.50;;;;;;5036377;29;20053;-67
2021/03/09 10:25:40;;;;;;;23.77;21.13;;;8.00;53.30;;;;;;5037101;29;20526;-66
2021/03/09 10:28:11;;;;;;;24.15;21.58;;;8.10;53.50;;;;;;5036786;29;20112;-66
2021/03/09 10:30:43;;;;;;;24.60;22.10;;;8.20;53.30;;;;;;5033810;29;20045;-67
2021/03/09 10:33:14;;;;;;;25.52;22.92;;;8.20;52.10;;;;;;5036776;29;20051;-67
2021/03/09 10:36:12;;;;;;;24.25;21.65;;;8.00;52.20;;;;;;5034325;29;20059;-67
2021/03/09 10:38:43;;;;;;;25.00;22.33;;;7.90;52.20;;;;;;5035904;29;20068;-67
2021/03/09 10:41:27;;;;;;;26.08;21.48;;;7.80;52.80;;;;;;5037743;29;20140;-67
2021/03/09 10:43:58;;;;;;;24.48;21.98;;;7.80;52.70;;;;;;5036012;29;20120;-67
2021/03/09 10:46:34;;;;;;;24.65;21.88;;;7.70;52.60;;;;;;5029052;29;20057;-65
2021/03/09 10:49:06;;;;;;;25.70;23.10;;;7.80;53.90;;;;;;5031866;29;20041;-67
2021/03/09 10:51:37;;;;;;;25.80;22.13;;;7.80;52.90;;;;;;5028228;29;20053;-67
2021/03/09 10:54:09;;;;;;;24.55;21.95;;;7.70;53.00;;;;;;5033176;29;20053;-67
2021/03/09 10:56:40;;;;;;;26.10;21.92;;;7.70;53.80;;;;;;5029669;29;20045;-67
2021/03/09 10:59:11;;;;;;;26.10;22.17;;;7.60;53.80;;;;;;5033238;29;20128;-67
2021/03/09 11:01:43;;;;;;;24.77;22.20;;;7.70;53.00;;;;;;5032693;29;20116;-66
2021/03/09 11:04:15;;;;;;;26.23;22.08;;;7.60;54.40;;;;;;5032854;29;20041;-66
2021/03/09 11:06:46;;;;;;;23.70;21.15;;;7.60;54.00;;;;;;5034373;29;20049;-67
2021/03/09 11:09:19;;;;;;;26.00;22.25;;;7.70;53.90;;;;;;5036138;29;20045;-68
2021/03/09 11:11:50;;;;;;;25.35;22.60;;;7.60;54.10;;;;;;5035088;29;20906;-68
2021/03/09 11:14:22;;;;;;;24.20;21.60;;;7.60;54.00;;;;;;5034756;29;20132;-67
2021/03/09 11:16:53;;;;;;;25.02;22.30;;;7.50;54.20;;;;;;5030769;29;20064;-67
2021/03/09 11:19:25;;;;;;;23.33;20.67;;;7.50;54.20;;;;;;5036285;29;20048;-67
2021/03/09 11:21:56;;;;;;;25.95;23.13;;;7.40;53.70;;;;;;5018127;29;20385;-67
2021/03/09 11:24:28;;;;;;;26.65;22.35;;;7.40;53.90;;;;;;5032610;29;20767;-67
2021/03/09 11:27:00;;;;;;;25.27;22.58;;;7.40;53.80;;;;;;5030873;29;20086;-66
2021/03/09 11:29:33;;;;;;;26.30;22.55;;;7.30;53.80;;;;;;5031410;29;20547;-67
2021/03/09 11:32:05;;;;;;;23.58;20.92;;;7.40;54.40;;;;;;5018691;29;20049;-67
2021/03/09 11:34:37;;;;;;;25.23;22.63;;;7.40;54.20;;;;;;5033259;29;20049;-67
2021/03/09 11:37:08;;;;;;;25.58;22.77;;;7.40;54.20;;;;;;5032396;29;20687;-67
2021/03/09 11:39:40;;;;;;;26.02;22.33;;;7.40;55.00;;;;;;5033627;29;20535;-68
2021/03/09 11:42:12;;;;;;;25.52;21.23;;;7.40;54.60;;;;;;5032266;29;20046;-66
2021/03/09 11:44:43;;;;;;;24.52;21.90;;;7.30;54.30;;;;;;5034866;29;20100;-66
2021/03/09 11:47:18;;;;;;;25.52;21.98;;;7.30;54.90;;;;;;5030251;29;20053;-66
2021/03/09 11:49:50;;;;;;;27.02;22.38;;;7.30;55.00;;;;;;5017657;29;20048;-67
2021/03/09 11:52:21;;;;;;;24.95;21.65;;;7.30;54.90;;;;;;5032978;29;20132;-67
2021/03/09 11:54:53;;;;;;;26.88;22.25;;;7.20;54.80;;;;;;5030979;29;20064;-65
2021/03/09 11:57:25;;;;;;;25.67;22.08;;;7.10;55.30;;;;;;5035176;29;20052;-66
2021/03/09 11:59:56;;;;;;;23.75;20.95;;;7.10;55.60;;;;;;5034304;29;20052;-66
2021/03/09 12:02:29;;;;;;;25.70;21.83;;;7.10;55.60;;;;;;5036954;29;20056;-66
2021/03/09 12:05:00;;;;;;;24.83;21.55;;;7.00;55.10;;;;;;5035741;29;20043;-67
2021/03/09 12:07:32;;;;;;;27.27;22.05;;;6.90;56.30;;;;;;5035028;29;20045;-67
2021/03/09 12:10:04;;;;;;;26.25;22.42;;;6.90;56.00;;;;;;5036722;29;20056;-67
2021/03/09 12:12:35;;;;;;;24.98;20.92;;;7.00;55.80;;;;;;5037939;29;20084;-66
2021/03/09 12:15:07;;;;;;;24.08;21.50;;;7.10;55.60;;;;;;5038334;29;20887;-67
2021/03/09 12:17:40;;;;;;;25.50;22.75;;;7.10;55.50;;;;;;5038218;29;20949;-66
2021/03/09 12:20:12;;;;;;;25.15;21.90;;;7.20;56.00;;;;;;5036859;29;20045;-67
2021/03/09 12:22:43;;;;;;;24.42;21.63;;;7.20;54.80;;;;;;5036548;29;20124;-66
2021/03/09 12:25:14;;;;;;;29.75;23.83;;;7.30;55.10;;;;;;5036558;29;20073;-66
2021/03/09 12:27:46;;;;;;;31.02;25.15;;;7.20;55.00;;;;;;5036153;29;20052;-66
2021/03/09 12:30:18;;;;;;;24.88;22.00;;;7.20;55.10;;;;;;5035459;29;20049;-66
2021/03/09 12:32:51;;;;;;;27.33;22.38;;;7.20;54.70;;;;;;5037060;29;20052;-66
2021/03/09 12:35:22;;;;;;;27.38;21.65;;;7.10;54.40;;;;;;5035407;29;20080;-66
2021/03/09 12:37:54;;;;;;;26.95;21.08;;;7.10;54.10;;;;;;5036283;29;20101;-65
2021/03/09 12:40:25;;;;;;;24.75;21.55;;;7.00;54.00;;;;;;5033948;29;20056;-66
2021/03/09 12:42:57;;;;;;;26.70;22.27;;;6.90;54.10;;;;;;5033441;29;20041;-67
2021/03/09 12:45:28;;;;;;;23.40;20.48;;;6.90;53.90;;;;;;5032905;29;20045;-66
2021/03/09 12:48:00;;;;;;;24.90;20.65;;;6.90;54.60;;;;;;5020354;29;20041;-65
2021/03/09 12:50:31;;;;;;;27.58;22.10;;;6.90;54.80;;;;;;5035668;29;20041;-68
2021/03/09 12:53:03;;;;;;;22.92;20.38;;;7.00;54.40;;;;;;5036456;29;20127;-66
2021/03/09 12:55:34;;;;;;;25.70;22.15;;;7.00;54.40;;;;;;5034772;29;20090;-66
2021/03/09 12:58:06;;;;;;;25.92;21.73;;;7.00;54.50;;;;;;5037592;29;20041;-68
2021/03/09 13:00:37;;;;;;;25.35;21.48;;;7.00;54.50;;;;;;5036579;29;20408;-67
2021/03/09 13:03:09;;;;;;;25.83;21.42;;;7.10;54.40;;;;;;5037323;29;20053;-69
2021/03/09 13:05:41;;;;;;;25.63;22.33;;;7.20;53.70;;;;;;5019396;29;20041;-68
2021/03/09 13:08:12;;;;;;;29.55;22.15;;;7.20;53.90;;;;;;5014602;29;20041;-66